< < Back
Terminal Aerodrome Forecast


Current Version              Previous Versions:   1  2  3  4  5  6  7  8  9  

Terminal Aerodrome Forecast

752
FTUS42 KMLB 261721
TAFDAB
TAF
KDAB 261721Z 2618/2718 12009KT P6SM VCSH SCT045 SCT060
     FM270000 18003KT P6SM SKC=

Latest METAR

219
SAUS80 KWBC 270100 CCA
MTRDAB
METAR KDAB 270053Z 14004KT 10SM FEW045 FEW110 FEW250 29/23 A3004 RMK AO2
SLP172 CB DSNT W-NW T02940233


USA.gov is the U.S. government's official web portal to all federal, state and local government web resources and services.